createdAt,value
2022-08-12T00:00:48.593Z,36.86
2022-08-12T00:03:34.368Z,36.84
2022-08-12T00:06:19.864Z,37.11
2022-08-12T00:09:05.078Z,37.17
2022-08-12T00:11:50.670Z,37.27
2022-08-12T00:14:37.313Z,37.36
2022-08-12T00:17:23.368Z,37.67
2022-08-12T00:20:08.923Z,37.59
2022-08-12T00:22:59.745Z,37.77
2022-08-12T00:26:20.609Z,38.11
2022-08-12T00:29:00.504Z,38.07
2022-08-12T00:31:47.466Z,38.35
2022-08-12T00:34:32.895Z,38.78
2022-08-12T00:37:18.332Z,39.09
2022-08-12T00:40:04.632Z,39.32
2022-08-12T00:42:39.078Z,39.36
2022-08-12T00:45:08.261Z,39.43
2022-08-12T00:47:37.686Z,39.79
2022-08-12T00:50:06.627Z,39.92
2022-08-12T00:52:34.780Z,40.13
2022-08-12T00:55:03.130Z,40.46
2022-08-12T00:57:31.790Z,40.31
2022-08-12T01:00:03.373Z,40.34
2022-08-12T01:02:32.558Z,40.30
2022-08-12T01:05:20.303Z,40.18
2022-08-12T01:08:05.909Z,40.11
2022-08-12T01:10:52.925Z,40.00
2022-08-12T01:13:21.484Z,40.08
2022-08-12T01:15:50.511Z,40.04
2022-08-12T01:18:18.756Z,39.87
2022-08-12T01:21:00.950Z,39.94
2022-08-12T01:23:50.291Z,40.04
2022-08-12T01:26:20.993Z,39.98
2022-08-12T01:28:51.100Z,40.10
2022-08-12T01:31:19.823Z,40.24
2022-08-12T01:33:57.327Z,40.25
2022-08-12T01:36:25.867Z,40.22
2022-08-12T01:38:56.366Z,40.19
2022-08-12T01:41:27.383Z,40.25
2022-08-12T01:43:55.424Z,40.33
2022-08-12T01:46:31.067Z,40.29
2022-08-12T01:49:04.798Z,40.38
2022-08-12T01:52:20.663Z,40.41
2022-08-12T01:54:29.104Z,40.60
2022-08-12T01:57:00.406Z,40.76
2022-08-12T01:59:50.252Z,40.76
2022-08-12T02:02:18.986Z,40.72
2022-08-12T02:05:23.098Z,40.80
2022-08-12T02:08:18.894Z,40.71
2022-08-12T02:11:07.767Z,40.77
2022-08-12T02:13:50.701Z,40.89
2022-08-12T02:16:30.469Z,40.75
2022-08-12T02:19:13.692Z,40.89
2022-08-12T02:21:53.682Z,40.69
2022-08-12T02:24:22.582Z,41.01
2022-08-12T02:26:52.563Z,40.81
2022-08-12T02:29:22.092Z,40.74
2022-08-12T02:31:50.073Z,40.95
2022-08-12T02:34:19.063Z,41.12
2022-08-12T02:36:47.357Z,41.09
2022-08-12T02:39:16.011Z,41.36
2022-08-12T02:41:45.344Z,41.33
2022-08-12T02:44:15.204Z,41.49
2022-08-12T02:46:49.167Z,41.55
2022-08-12T02:49:20.325Z,41.48
2022-08-12T02:51:48.367Z,41.59
2022-08-12T02:54:16.396Z,41.82
2022-08-12T02:56:47.226Z,41.94
2022-08-12T02:59:20.262Z,41.87
2022-08-12T03:01:50.856Z,42.08
2022-08-12T03:04:23.991Z,41.80
2022-08-12T03:06:56.784Z,41.69
2022-08-12T03:09:24.745Z,41.54
2022-08-12T03:11:59.468Z,41.90
2022-08-12T03:14:29.711Z,41.93
2022-08-12T03:17:09.530Z,42.02
2022-08-12T03:19:38.284Z,41.99
2022-08-12T03:22:26.241Z,42.11
2022-08-12T03:24:54.250Z,42.02
2022-08-12T03:27:22.262Z,42.09
2022-08-12T03:29:51.534Z,41.97
2022-08-12T03:32:35.723Z,41.80
2022-08-12T03:35:07.589Z,42.04
2022-08-12T03:37:35.661Z,42.06
2022-08-12T03:40:03.728Z,42.00
2022-08-12T03:42:34.818Z,42.15
2022-08-12T03:45:32.816Z,42.27
2022-08-12T03:48:24.491Z,42.36
2022-08-12T03:51:10.002Z,42.22
2022-08-12T03:53:56.139Z,42.28
2022-08-12T03:56:41.420Z,42.15
2022-08-12T03:59:27.032Z,42.26
2022-08-12T04:01:57.690Z,42.30
2022-08-12T04:04:28.689Z,42.30
2022-08-12T04:06:58.080Z,42.31
2022-08-12T04:09:26.167Z,42.46
2022-08-12T04:12:11.509Z,42.33
2022-08-12T04:14:40.466Z,42.44
2022-08-12T04:17:08.588Z,42.24
2022-08-12T04:19:37.980Z,42.33
2022-08-12T04:22:06.160Z,42.28
2022-08-12T04:24:35.980Z,42.09
2022-08-12T04:27:05.480Z,42.12
2022-08-12T04:30:29.101Z,42.08
2022-08-12T04:32:22.452Z,42.11
2022-08-12T04:34:52.112Z,42.08
2022-08-12T04:37:20.199Z,42.46
2022-08-12T04:39:48.355Z,42.34
2022-08-12T04:42:16.634Z,42.19
2022-08-12T04:44:45.264Z,42.47
2022-08-12T04:47:14.212Z,42.27
2022-08-12T04:49:42.708Z,42.23
2022-08-12T04:52:12.188Z,42.44
2022-08-12T04:54:40.171Z,42.56
2022-08-12T04:57:09.826Z,42.79
2022-08-12T04:59:43.712Z,42.98
2022-08-12T05:02:20.557Z,43.12
2022-08-12T05:04:50.810Z,43.19
2022-08-12T05:07:20.363Z,43.35
2022-08-12T05:10:00.481Z,42.98
2022-08-12T05:12:33.518Z,43.06
2022-08-12T05:15:01.776Z,42.75
2022-08-12T05:17:29.907Z,42.89
2022-08-12T05:19:58.350Z,42.99
2022-08-12T05:22:28.215Z,43.27
2022-08-12T05:24:56.264Z,43.03
2022-08-12T05:27:24.248Z,43.27
2022-08-12T05:30:06.408Z,43.24
2022-08-12T05:32:37.352Z,43.07
2022-08-12T05:35:08.113Z,43.12
2022-08-12T05:37:37.553Z,43.09
2022-08-12T05:40:10.916Z,42.85
2022-08-12T05:42:39.650Z,42.81
2022-08-12T05:45:08.857Z,42.74
2022-08-12T05:47:53.350Z,42.68
2022-08-12T05:50:22.398Z,42.47
2022-08-12T05:52:53.859Z,42.58
2022-08-12T05:55:25.831Z,42.44
2022-08-12T05:57:56.392Z,42.40
2022-08-12T06:00:25.768Z,42.33
2022-08-12T06:02:57.115Z,42.49
2022-08-12T06:05:25.187Z,42.28
2022-08-12T06:08:01.485Z,42.12
2022-08-12T06:10:33.081Z,42.08
2022-08-12T06:13:02.604Z,42.05
2022-08-12T06:15:31.302Z,41.81
2022-08-12T06:18:13.747Z,41.81
2022-08-12T06:20:44.188Z,41.62
2022-08-12T06:23:15.345Z,41.54
2022-08-12T06:25:43.687Z,41.64
2022-08-12T06:28:17.515Z,41.57
2022-08-12T06:31:02.695Z,41.61
2022-08-12T06:33:53.849Z,41.50
2022-08-12T06:36:23.320Z,41.50
2022-08-12T06:38:53.184Z,41.62
2022-08-12T06:41:38.476Z,41.70
2022-08-12T06:44:08.017Z,41.87
2022-08-12T06:46:36.839Z,41.79
2022-08-12T06:49:06.917Z,42.01
2022-08-12T06:51:35.352Z,41.71
2022-08-12T06:54:04.912Z,41.85
2022-08-12T06:57:02.452Z,41.73
2022-08-12T06:59:21.767Z,41.69
2022-08-12T07:01:51.705Z,41.66
2022-08-12T07:04:37.473Z,41.44
2022-08-12T07:07:07.265Z,41.18
2022-08-12T07:09:58.105Z,41.21
2022-08-12T07:12:28.318Z,41.00
2022-08-12T07:14:57.523Z,40.80
2022-08-12T07:17:25.563Z,40.27
2022-08-12T07:19:55.455Z,40.19
2022-08-12T07:22:26.258Z,40.01
2022-08-12T07:25:09.417Z,39.86
2022-08-12T07:27:40.740Z,39.88
2022-08-12T07:30:10.221Z,39.69
2022-08-12T07:32:38.303Z,39.19
2022-08-12T07:35:07.531Z,38.87
2022-08-12T07:37:37.586Z,38.75
2022-08-12T07:40:11.612Z,38.48
2022-08-12T07:42:40.054Z,38.34
2022-08-12T07:45:09.567Z,38.01
2022-08-12T07:47:37.973Z,37.70
2022-08-12T07:50:09.328Z,37.42
2022-08-12T07:52:38.465Z,37.65
2022-08-12T07:55:09.057Z,37.03
2022-08-12T07:57:37.152Z,36.96
2022-08-12T08:00:06.258Z,37.05
2022-08-12T08:02:36.261Z,36.41
2022-08-12T08:05:04.505Z,36.13
2022-08-12T08:07:32.580Z,36.59
2022-08-12T08:10:01.599Z,36.38
2022-08-12T08:12:48.695Z,36.11
2022-08-12T08:15:17.133Z,35.78
2022-08-12T08:17:59.282Z,35.73
2022-08-12T08:20:29.404Z,36.11
2022-08-12T08:22:58.218Z,35.80
2022-08-12T08:25:36.146Z,35.79
2022-08-12T08:28:08.330Z,35.44
2022-08-12T08:30:38.343Z,35.51
2022-08-12T08:33:24.644Z,35.06
2022-08-12T08:35:57.302Z,35.26
2022-08-12T08:38:32.277Z,34.65
2022-08-12T08:42:17.225Z,34.37
2022-08-12T08:44:11.051Z,34.80
2022-08-12T08:46:39.608Z,34.68
2022-08-12T08:49:07.655Z,34.64
2022-08-12T08:51:36.551Z,34.06
2022-08-12T08:54:04.927Z,34.42
2022-08-12T08:56:33.000Z,33.82
2022-08-12T08:59:01.102Z,33.75
2022-08-12T09:01:37.554Z,33.37
2022-08-12T09:05:09.477Z,32.90
2022-08-12T09:07:16.894Z,33.02
2022-08-12T09:10:02.513Z,32.42
2022-08-12T09:12:54.420Z,31.84
2022-08-12T09:15:36.809Z,31.12
2022-08-12T09:18:08.866Z,30.99
2022-08-12T09:20:38.337Z,30.73
2022-08-12T09:24:00.012Z,29.91
2022-08-12T09:26:03.739Z,29.20
2022-08-12T09:28:33.582Z,29.15
2022-08-12T09:31:01.590Z,28.24
2022-08-12T09:34:25.701Z,27.93
2022-08-12T09:36:31.466Z,27.76
2022-08-12T09:40:06.017Z,27.59
2022-08-12T09:42:39.079Z,27.28
2022-08-12T09:46:05.221Z,26.68
2022-08-12T09:48:19.953Z,26.84
2022-08-12T09:50:55.628Z,26.96
2022-08-12T09:53:36.609Z,27.00
2022-08-12T09:57:00.304Z,27.31
2022-08-12T09:58:59.931Z,26.99
2022-08-12T10:01:35.423Z,26.83
2022-08-12T10:04:19.622Z,26.94
2022-08-12T10:06:54.783Z,26.64
2022-08-12T10:09:28.519Z,26.35
2022-08-12T10:12:33.120Z,26.13
2022-08-12T10:16:02.952Z,26.23
2022-08-12T10:18:07.903Z,25.87
2022-08-12T10:20:36.121Z,25.99
2022-08-12T10:23:05.740Z,25.34
2022-08-12T10:26:35.643Z,25.17
2022-08-12T10:29:02.831Z,25.26
2022-08-12T10:32:19.767Z,25.14
2022-08-12T10:34:24.037Z,25.13
2022-08-12T10:36:58.785Z,24.95
2022-08-12T10:40:06.874Z,24.97
2022-08-12T10:42:47.870Z,24.38
2022-08-12T10:45:17.200Z,24.29
2022-08-12T10:48:19.701Z,23.85
2022-08-12T10:50:58.437Z,23.74
2022-08-12T10:53:45.402Z,23.97
2022-08-12T10:56:16.469Z,23.90
2022-08-12T10:58:45.980Z,23.70
2022-08-12T11:01:50.213Z,23.62
2022-08-12T11:04:32.104Z,23.24
2022-08-12T11:07:05.911Z,23.36
2022-08-12T11:09:59.697Z,23.09
2022-08-12T11:12:55.938Z,23.18
2022-08-12T11:15:33.075Z,22.74
2022-08-12T11:18:12.001Z,22.72
2022-08-12T11:20:48.034Z,22.43
2022-08-12T11:23:25.150Z,22.51
2022-08-12T11:26:06.208Z,22.34
2022-08-12T11:28:37.520Z,22.57
2022-08-12T11:31:10.062Z,22.49
2022-08-12T11:34:06.139Z,23.15
2022-08-12T11:36:29.399Z,23.13
2022-08-12T11:39:04.360Z,22.55
2022-08-12T11:41:34.573Z,21.63
2022-08-12T11:44:37.217Z,21.79
2022-08-12T11:46:53.294Z,21.28
2022-08-12T11:49:31.371Z,20.84
2022-08-12T11:52:02.005Z,19.95
2022-08-12T11:54:30.439Z,19.61
2022-08-12T11:57:00.213Z,20.05
2022-08-12T12:02:20.847Z,19.56
2022-08-12T12:04:52.987Z,19.14
2022-08-12T12:07:33.954Z,18.45
2022-08-12T12:10:11.915Z,18.77
2022-08-12T12:12:41.509Z,18.26
2022-08-12T12:15:25.188Z,17.84
2022-08-12T12:18:05.524Z,18.15
2022-08-12T12:20:35.120Z,17.89
2022-08-12T12:23:04.236Z,18.16
2022-08-12T12:25:59.696Z,17.70
2022-08-12T12:28:37.942Z,17.62
2022-08-12T12:31:14.859Z,17.30
2022-08-12T12:33:58.958Z,17.56
2022-08-12T12:36:30.296Z,16.79
2022-08-12T12:39:00.408Z,16.89
2022-08-12T12:42:45.660Z,16.92
2022-08-12T12:44:25.849Z,17.42
2022-08-12T12:46:59.840Z,17.17
2022-08-12T12:49:28.967Z,16.85
2022-08-12T12:52:19.270Z,16.63
2022-08-12T12:54:52.976Z,16.76
2022-08-12T12:57:21.589Z,16.30
2022-08-12T13:00:18.945Z,16.67
2022-08-12T13:02:55.496Z,16.08
2022-08-12T13:05:27.504Z,16.34
2022-08-12T13:08:01.153Z,16.16
2022-08-12T13:10:30.747Z,16.19
2022-08-12T13:14:06.866Z,16.27
2022-08-12T13:15:53.929Z,16.23
2022-08-12T13:18:36.766Z,15.95
2022-08-12T13:21:06.024Z,15.95
2022-08-12T13:23:48.067Z,16.05
2022-08-12T13:26:17.272Z,15.84
2022-08-12T13:28:53.109Z,15.94
2022-08-12T13:31:22.245Z,15.58
2022-08-12T13:34:32.053Z,15.32
2022-08-12T13:36:43.430Z,15.40
2022-08-12T13:39:12.940Z,14.96
2022-08-12T13:41:44.644Z,15.10
2022-08-12T13:44:13.059Z,14.90
2022-08-12T13:46:42.224Z,14.81
2022-08-12T13:49:17.667Z,14.46
2022-08-12T13:52:01.791Z,14.32
2022-08-12T13:54:31.715Z,14.58
2022-08-12T13:57:00.056Z,14.22
2022-08-12T13:59:28.634Z,14.10
2022-08-12T14:02:17.581Z,13.93
2022-08-12T14:04:56.701Z,14.02
2022-08-12T14:07:26.117Z,13.80
2022-08-12T14:10:11.806Z,14.13
2022-08-12T14:12:54.756Z,13.95
2022-08-12T14:15:36.753Z,14.00
2022-08-12T14:18:13.291Z,13.69
2022-08-12T14:20:43.763Z,13.23
2022-08-12T14:24:01.451Z,13.55
2022-08-12T14:26:05.273Z,13.42
2022-08-12T14:28:35.034Z,14.19
2022-08-12T14:31:07.229Z,14.08
2022-08-12T14:33:48.847Z,14.24
2022-08-12T14:36:21.708Z,13.74
2022-08-12T14:38:49.935Z,12.77
2022-08-12T14:41:19.125Z,12.95
2022-08-12T14:44:04.472Z,13.33
2022-08-12T14:46:34.603Z,13.37
2022-08-12T14:50:01.340Z,13.82
2022-08-12T14:52:38.906Z,13.92
2022-08-12T14:57:35.626Z,13.06
2022-08-12T15:00:33.325Z,12.33
2022-08-12T15:03:03.504Z,12.60
2022-08-12T15:06:03.403Z,12.49
2022-08-12T15:08:28.579Z,12.97
2022-08-12T15:10:57.784Z,13.02
2022-08-12T15:13:26.215Z,13.40
2022-08-12T15:15:56.355Z,12.78
2022-08-12T15:18:24.858Z,12.34
2022-08-12T15:20:54.775Z,12.75
2022-08-12T15:23:23.809Z,12.81
2022-08-12T15:26:02.729Z,13.25
2022-08-12T15:28:32.838Z,12.74
2022-08-12T15:31:00.891Z,12.85
2022-08-12T15:33:45.468Z,12.70
2022-08-12T15:36:14.548Z,11.92
2022-08-12T15:38:47.684Z,11.68
2022-08-12T15:41:22.229Z,11.35
2022-08-12T15:44:37.121Z,10.65
2022-08-12T15:46:39.640Z,10.91
2022-08-12T15:49:16.778Z,11.39
2022-08-12T15:51:58.920Z,10.83
2022-08-12T15:54:34.731Z,10.75
2022-08-12T15:57:10.689Z,10.72
2022-08-12T16:00:04.225Z,11.21
2022-08-12T16:02:29.751Z,10.78
2022-08-12T16:04:58.420Z,11.33
2022-08-12T16:07:29.996Z,12.45
2022-08-12T16:10:05.964Z,12.46
2022-08-12T16:12:42.147Z,12.92
2022-08-12T16:15:13.297Z,13.25
2022-08-12T16:18:18.522Z,13.36
2022-08-12T16:20:33.601Z,13.16
2022-08-12T16:23:04.053Z,13.29
2022-08-12T16:26:03.263Z,13.85
2022-08-12T16:28:22.684Z,13.90
2022-08-12T16:30:56.271Z,14.35
2022-08-12T16:33:24.948Z,14.46
2022-08-12T16:36:04.628Z,14.42
2022-08-12T16:38:32.996Z,13.93
2022-08-12T16:41:01.635Z,14.23
2022-08-12T16:43:33.538Z,14.20
2022-08-12T16:46:05.214Z,13.92
2022-08-12T16:48:50.527Z,13.91
2022-08-12T16:51:19.901Z,14.35
2022-08-12T16:53:49.403Z,13.52
2022-08-12T16:56:18.159Z,13.75
2022-08-12T16:58:48.192Z,13.93
2022-08-12T17:01:16.520Z,13.89
2022-08-12T17:03:52.865Z,13.58
2022-08-12T17:06:27.379Z,13.66
2022-08-12T17:09:08.805Z,13.89
2022-08-12T17:11:49.275Z,14.27
2022-08-12T17:14:23.061Z,14.17
2022-08-12T17:16:52.310Z,14.38
2022-08-12T17:19:20.391Z,14.43
2022-08-12T17:22:08.810Z,14.73
2022-08-12T17:24:37.281Z,14.55
2022-08-12T17:27:16.483Z,14.78
2022-08-12T17:30:01.578Z,14.74
2022-08-12T17:32:33.768Z,15.22
2022-08-12T17:35:36.882Z,15.64
2022-08-12T17:38:06.933Z,16.18
2022-08-12T17:40:37.095Z,16.78
2022-08-12T17:43:52.020Z,17.52
2022-08-12T17:46:00.035Z,18.57
2022-08-12T17:48:34.847Z,19.21
2022-08-12T17:51:16.198Z,19.47
2022-08-12T17:54:11.706Z,19.37
2022-08-12T17:56:36.912Z,19.79
2022-08-12T17:59:07.614Z,20.28
2022-08-12T18:01:37.237Z,20.27
2022-08-12T18:04:20.889Z,20.80
2022-08-12T18:06:50.869Z,20.68
2022-08-12T18:09:19.351Z,20.60
2022-08-12T18:12:07.912Z,20.99
2022-08-12T18:14:38.083Z,21.13
2022-08-12T18:17:10.514Z,21.80
2022-08-12T18:20:05.480Z,21.79
2022-08-12T18:22:30.411Z,22.03
2022-08-12T18:25:13.761Z,22.19
2022-08-12T18:28:16.638Z,22.19
2022-08-12T18:30:52.466Z,22.51
2022-08-12T18:33:26.124Z,22.29
2022-08-12T18:35:56.741Z,22.46
2022-08-12T18:38:25.895Z,22.46
2022-08-12T18:41:22.035Z,22.65
2022-08-12T18:43:58.751Z,22.76
2022-08-12T18:46:32.090Z,22.77
2022-08-12T18:49:17.133Z,23.17
2022-08-12T18:51:55.147Z,23.21
2022-08-12T18:54:31.063Z,23.41
2022-08-12T18:57:01.747Z,23.44
2022-08-12T19:00:01.852Z,23.56
2022-08-12T19:02:22.468Z,23.74
2022-08-12T19:04:53.219Z,23.94
2022-08-12T19:07:22.680Z,24.23
2022-08-12T19:09:58.388Z,24.03
2022-08-12T19:12:57.089Z,24.36
2022-08-12T19:15:26.004Z,24.71
2022-08-12T19:18:00.697Z,24.97
2022-08-12T19:20:35.773Z,24.99
2022-08-12T19:23:08.301Z,25.02
2022-08-12T19:26:01.241Z,25.01
2022-08-12T19:28:35.402Z,25.92
2022-08-12T19:31:44.755Z,26.91
2022-08-12T19:34:47.015Z,27.49
2022-08-12T19:37:20.100Z,27.99
2022-08-12T19:40:08.755Z,28.40
2022-08-12T19:42:41.761Z,28.49
2022-08-12T19:45:14.830Z,28.98
2022-08-12T19:47:44.780Z,29.41
2022-08-12T19:50:13.676Z,29.34
2022-08-12T19:52:51.265Z,29.39
2022-08-12T19:55:22.972Z,29.63
2022-08-12T19:58:02.866Z,29.25
2022-08-12T20:00:34.722Z,29.39
2022-08-12T20:03:04.418Z,29.88
2022-08-12T20:06:06.375Z,30.24
2022-08-12T20:08:32.858Z,30.48
2022-08-12T20:12:10.229Z,30.59
2022-08-12T20:14:01.075Z,30.04
2022-08-12T20:16:54.512Z,30.36
2022-08-12T20:19:52.188Z,30.16
2022-08-12T20:22:14.910Z,30.63
2022-08-12T20:24:55.257Z,30.86
2022-08-12T20:28:03.606Z,30.75
2022-08-12T20:30:20.673Z,30.72
2022-08-12T20:33:06.054Z,30.69
2022-08-12T20:36:06.865Z,30.55
2022-08-12T20:38:34.256Z,30.71
2022-08-12T20:41:18.967Z,30.41
2022-08-12T20:43:51.855Z,30.80
2022-08-12T20:46:20.454Z,30.34
2022-08-12T20:48:54.307Z,30.85
2022-08-12T20:51:23.522Z,30.34
2022-08-12T20:53:57.465Z,30.50
2022-08-12T20:56:34.516Z,31.00
2022-08-12T20:59:04.742Z,31.14
2022-08-12T21:01:36.681Z,30.88
2022-08-12T21:04:34.355Z,31.48
2022-08-12T21:07:08.564Z,31.15
2022-08-12T21:09:41.104Z,31.86
2022-08-12T21:12:27.928Z,31.46
2022-08-12T21:15:17.400Z,31.86
2022-08-12T21:18:08.617Z,31.80
2022-08-12T21:20:37.068Z,31.53
2022-08-12T21:23:06.389Z,31.23
2022-08-12T21:25:35.883Z,31.88
2022-08-12T21:28:14.588Z,31.78
2022-08-12T21:30:55.067Z,31.92
2022-08-12T21:33:31.815Z,32.14
2022-08-12T21:36:02.588Z,32.25
2022-08-12T21:38:34.878Z,31.82
2022-08-12T21:41:09.000Z,32.22
2022-08-12T21:43:45.278Z,31.66
2022-08-12T21:46:34.848Z,31.76
2022-08-12T21:49:05.435Z,32.03
2022-08-12T21:51:49.017Z,31.94
2022-08-12T21:54:21.678Z,32.03
2022-08-12T21:56:50.209Z,32.00
2022-08-12T21:59:20.302Z,32.26
2022-08-12T22:01:49.656Z,32.45
2022-08-12T22:04:35.776Z,31.96
2022-08-12T22:07:06.091Z,32.41
2022-08-12T22:09:43.494Z,32.50
2022-08-12T22:12:40.574Z,31.83
2022-08-12T22:15:21.330Z,32.53
2022-08-12T22:17:55.572Z,32.12
2022-08-12T22:20:29.429Z,32.30
2022-08-12T22:23:00.362Z,32.17
2022-08-12T22:25:30.325Z,32.18
2022-08-12T22:28:17.876Z,32.88
2022-08-12T22:31:15.340Z,32.82
2022-08-12T22:33:54.329Z,32.87
2022-08-12T22:36:29.282Z,33.01
2022-08-12T22:38:59.734Z,33.23
2022-08-12T22:41:45.226Z,33.15
2022-08-12T22:44:30.893Z,33.21
2022-08-12T22:47:54.238Z,33.23
2022-08-12T22:50:06.739Z,33.36
2022-08-12T22:52:35.287Z,33.62
2022-08-12T22:55:05.532Z,33.64
2022-08-12T22:57:53.851Z,33.48
2022-08-12T23:00:24.611Z,33.84
2022-08-12T23:03:00.607Z,33.52
2022-08-12T23:05:56.584Z,34.05
2022-08-12T23:08:21.680Z,34.10
2022-08-12T23:10:50.141Z,34.15
2022-08-12T23:13:43.114Z,34.04
2022-08-12T23:16:28.633Z,34.49
2022-08-12T23:19:09.894Z,34.73
2022-08-12T23:22:06.684Z,34.80
2022-08-12T23:24:38.342Z,35.01
2022-08-12T23:27:23.710Z,35.07
2022-08-12T23:29:59.554Z,35.14
2022-08-12T23:32:40.981Z,35.02
2022-08-12T23:35:10.563Z,35.64
2022-08-12T23:37:53.899Z,35.60
2022-08-12T23:40:24.740Z,35.84
2022-08-12T23:42:54.369Z,35.76
2022-08-12T23:45:32.026Z,36.01
2022-08-12T23:48:02.544Z,35.96
2022-08-12T23:50:34.048Z,35.87
2022-08-12T23:53:05.519Z,35.92
2022-08-12T23:55:38.205Z,35.99
2022-08-12T23:58:21.702Z,36.15
